createdAt,value
2022-12-11T00:00:22.004Z,99.90
2022-12-11T00:02:48.879Z,99.90
2022-12-11T00:05:15.816Z,99.90
2022-12-11T00:07:42.840Z,99.90
2022-12-11T00:10:09.773Z,99.90
2022-12-11T00:12:36.574Z,99.90
2022-12-11T00:15:03.557Z,99.90
2022-12-11T00:17:30.430Z,99.90
2022-12-11T00:19:57.226Z,99.90
2022-12-11T00:22:24.018Z,99.90
2022-12-11T00:24:51.780Z,99.90
2022-12-11T00:27:18.622Z,99.90
2022-12-11T00:29:45.525Z,99.90
2022-12-11T00:32:12.316Z,99.90
2022-12-11T00:34:39.279Z,99.90
2022-12-11T00:37:06.142Z,99.90
2022-12-11T00:39:33.090Z,99.90
2022-12-11T00:41:59.954Z,99.90
2022-12-11T00:44:26.835Z,99.90
2022-12-11T00:46:53.649Z,99.90
2022-12-11T00:49:20.457Z,99.90
2022-12-11T00:51:47.238Z,99.90
2022-12-11T00:54:14.064Z,99.90
2022-12-11T00:56:40.872Z,99.90
2022-12-11T00:59:07.819Z,99.90
2022-12-11T01:01:34.896Z,99.90
2022-12-11T01:04:01.835Z,99.90
2022-12-11T01:06:29.075Z,99.90
2022-12-11T01:09:15.416Z,99.90
2022-12-11T01:11:43.122Z,99.90
2022-12-11T01:14:11.548Z,99.90
2022-12-11T01:16:38.561Z,99.90
2022-12-11T01:19:05.476Z,99.90
2022-12-11T01:21:32.461Z,99.90
2022-12-11T01:23:59.265Z,99.90
2022-12-11T01:26:26.168Z,99.90
2022-12-11T01:28:53.106Z,99.90
2022-12-11T01:31:20.739Z,99.90
2022-12-11T01:33:47.805Z,99.90
2022-12-11T01:36:19.812Z,99.90
2022-12-11T01:38:47.889Z,99.90
2022-12-11T01:41:15.047Z,99.90
2022-12-11T01:44:08.869Z,99.90
2022-12-11T01:46:37.147Z,99.90
2022-12-11T01:49:08.220Z,99.90
2022-12-11T01:51:40.560Z,99.90
2022-12-11T01:54:11.459Z,99.90
2022-12-11T01:56:41.295Z,99.90
2022-12-11T01:59:10.171Z,99.90
2022-12-11T02:02:11.852Z,99.90
2022-12-11T02:04:40.084Z,99.90
2022-12-11T02:07:06.898Z,99.90
2022-12-11T02:09:35.634Z,99.90
2022-12-11T02:12:06.482Z,99.90
2022-12-11T02:14:59.603Z,99.90
2022-12-11T02:17:52.800Z,99.90
2022-12-11T02:20:41.723Z,99.90
2022-12-11T02:23:26.587Z,99.90
2022-12-11T02:26:20.024Z,99.90
2022-12-11T02:28:51.558Z,99.90
2022-12-11T02:31:45.223Z,99.90
2022-12-11T02:34:35.484Z,99.90
2022-12-11T02:37:07.835Z,99.90
2022-12-11T02:39:38.330Z,99.90
2022-12-11T02:42:06.012Z,99.90
2022-12-11T02:44:35.063Z,99.90
2022-12-11T02:47:04.565Z,99.90
2022-12-11T02:49:33.966Z,99.90
2022-12-11T02:52:03.449Z,99.90
2022-12-11T02:54:34.143Z,99.90
2022-12-11T02:57:07.326Z,99.90
2022-12-11T02:59:43.779Z,99.90
2022-12-11T03:02:12.805Z,99.90
2022-12-11T03:04:40.904Z,99.90
2022-12-11T03:07:18.935Z,99.90
2022-12-11T03:09:47.832Z,99.90
2022-12-11T03:12:19.239Z,99.90
2022-12-11T03:14:46.387Z,99.90
2022-12-11T03:17:23.040Z,99.90
2022-12-11T03:20:00.656Z,99.90
2022-12-11T03:22:39.121Z,99.90
2022-12-11T03:25:18.500Z,99.90
2022-12-11T03:27:50.564Z,99.90
2022-12-11T03:30:21.447Z,99.90
2022-12-11T03:32:54.914Z,99.90
2022-12-11T03:35:40.268Z,99.90
2022-12-11T03:38:16.367Z,99.90
2022-12-11T03:40:46.534Z,99.90
2022-12-11T03:43:14.436Z,99.90
2022-12-11T03:45:42.180Z,99.90
2022-12-11T03:48:10.184Z,99.90
2022-12-11T03:50:37.802Z,99.90
2022-12-11T03:53:05.420Z,99.90
2022-12-11T03:55:33.418Z,99.90
2022-12-11T03:58:00.366Z,99.90
2022-12-11T04:00:27.642Z,99.90
2022-12-11T04:03:13.911Z,99.90
2022-12-11T04:05:47.110Z,99.90
2022-12-11T04:08:15.199Z,99.90
2022-12-11T04:10:42.666Z,99.90
2022-12-11T04:13:10.690Z,99.90
2022-12-11T04:15:38.789Z,99.90
2022-12-11T04:18:25.614Z,99.90
2022-12-11T04:21:14.811Z,99.90
2022-12-11T04:24:00.280Z,99.90
2022-12-11T04:26:27.296Z,99.90
2022-12-11T04:28:54.113Z,99.90
2022-12-11T04:31:22.530Z,99.90
2022-12-11T04:33:49.795Z,99.90
2022-12-11T04:36:16.977Z,99.90
2022-12-11T04:38:43.842Z,99.90
2022-12-11T04:41:12.851Z,99.90
2022-12-11T04:43:40.394Z,99.90
2022-12-11T04:46:13.273Z,99.90
2022-12-11T04:48:40.655Z,99.90
2022-12-11T04:51:08.627Z,99.90
2022-12-11T04:53:36.556Z,99.90
2022-12-11T04:56:08.717Z,99.90
2022-12-11T04:58:36.146Z,99.90
2022-12-11T05:01:18.637Z,99.90
2022-12-11T05:03:45.615Z,99.90
2022-12-11T05:06:12.950Z,99.90
2022-12-11T05:08:41.998Z,99.90
2022-12-11T05:11:11.306Z,99.90
2022-12-11T05:13:38.338Z,99.90
2022-12-11T05:16:06.957Z,99.90
2022-12-11T05:18:34.212Z,99.90
2022-12-11T05:21:03.570Z,99.90
2022-12-11T05:23:30.884Z,99.90
2022-12-11T05:26:00.629Z,99.90
2022-12-11T05:28:29.483Z,99.90
2022-12-11T05:30:57.918Z,99.90
2022-12-11T05:33:25.199Z,99.90
2022-12-11T05:35:52.665Z,99.90
2022-12-11T05:38:19.698Z,99.90
2022-12-11T05:41:05.422Z,99.90
2022-12-11T05:43:34.560Z,99.90
2022-12-11T05:46:19.630Z,99.90
2022-12-11T05:48:48.809Z,99.90
2022-12-11T05:51:17.171Z,99.90
2022-12-11T05:53:45.077Z,99.90
2022-12-11T05:56:26.435Z,99.90
2022-12-11T05:58:54.148Z,99.90
2022-12-11T06:01:28.328Z,99.90
2022-12-11T06:03:56.485Z,99.90
2022-12-11T06:06:24.154Z,99.90
2022-12-11T06:08:52.342Z,99.90
2022-12-11T06:11:23.743Z,99.90
2022-12-11T06:13:51.608Z,99.90
2022-12-11T06:16:18.582Z,99.90
2022-12-11T06:18:45.576Z,99.90
2022-12-11T06:21:26.496Z,99.90
2022-12-11T06:23:55.642Z,99.90
2022-12-11T06:26:23.037Z,99.90
2022-12-11T06:28:50.578Z,99.90
2022-12-11T06:31:18.014Z,99.90
2022-12-11T06:33:45.256Z,99.90
2022-12-11T06:36:15.456Z,99.90
2022-12-11T06:38:43.191Z,99.90
2022-12-11T06:41:10.418Z,99.90
2022-12-11T06:43:39.176Z,99.90
2022-12-11T06:46:13.356Z,99.90
2022-12-11T06:48:42.287Z,99.90
2022-12-11T06:51:20.727Z,99.90
2022-12-11T06:53:55.544Z,99.90
2022-12-11T06:56:23.667Z,99.90
2022-12-11T06:58:51.692Z,99.90
2022-12-11T07:01:21.876Z,99.90
2022-12-11T07:03:49.211Z,99.90
2022-12-11T07:06:16.629Z,99.90
2022-12-11T07:08:43.722Z,99.90
2022-12-11T07:11:13.214Z,99.90
2022-12-11T07:13:42.003Z,99.90
2022-12-11T07:16:11.131Z,99.90
2022-12-11T07:18:39.379Z,99.90
2022-12-11T07:21:07.679Z,99.90
2022-12-11T07:23:35.408Z,99.90
2022-12-11T07:26:10.772Z,99.90
2022-12-11T07:28:37.816Z,99.90
2022-12-11T07:31:13.156Z,99.90
2022-12-11T07:33:40.464Z,99.90
2022-12-11T07:36:09.923Z,99.90
2022-12-11T07:38:36.947Z,99.90
2022-12-11T07:41:05.754Z,99.90
2022-12-11T07:43:33.760Z,99.90
2022-12-11T07:46:02.834Z,99.90
2022-12-11T07:48:29.834Z,99.90
2022-12-11T07:50:56.659Z,99.90
2022-12-11T07:53:23.774Z,99.90
2022-12-11T07:55:50.582Z,99.90
2022-12-11T07:58:17.440Z,99.90
2022-12-11T08:00:45.378Z,99.90
2022-12-11T08:03:12.183Z,99.90
2022-12-11T08:05:38.997Z,99.90
2022-12-11T08:08:05.832Z,99.90
2022-12-11T08:10:32.671Z,99.90
2022-12-11T08:12:59.508Z,99.90
2022-12-11T08:15:26.332Z,99.90
2022-12-11T08:17:53.102Z,99.90
2022-12-11T08:20:20.177Z,99.90
2022-12-11T08:22:46.969Z,99.90
2022-12-11T08:25:13.877Z,99.90
2022-12-11T08:27:40.860Z,99.90
2022-12-11T08:30:08.268Z,99.90
2022-12-11T08:32:35.332Z,99.90
2022-12-11T08:35:02.237Z,99.90
2022-12-11T08:37:29.678Z,99.90
2022-12-11T08:39:56.480Z,99.90
2022-12-11T08:42:23.297Z,99.90
2022-12-11T08:44:50.300Z,99.90
2022-12-11T08:47:17.341Z,99.90
2022-12-11T08:49:44.193Z,99.90
2022-12-11T08:52:11.072Z,99.90
2022-12-11T08:54:38.512Z,99.90
2022-12-11T08:57:05.611Z,99.90
2022-12-11T08:59:32.471Z,99.90
2022-12-11T09:01:59.275Z,99.90
2022-12-11T09:04:26.056Z,99.90
2022-12-11T09:06:52.908Z,99.90
2022-12-11T09:09:19.763Z,99.90
2022-12-11T09:11:46.604Z,99.90
2022-12-11T09:14:13.532Z,99.90
2022-12-11T09:16:40.944Z,99.90
2022-12-11T09:19:12.690Z,99.90
2022-12-11T09:21:39.716Z,99.90
2022-12-11T09:24:06.875Z,99.90
2022-12-11T09:26:34.064Z,99.90
2022-12-11T09:29:03.478Z,99.90
2022-12-11T09:31:33.564Z,99.90
2022-12-11T09:34:02.805Z,99.90
2022-12-11T09:36:30.152Z,99.90
2022-12-11T09:39:01.604Z,99.90
2022-12-11T09:41:53.681Z,99.90
2022-12-11T09:44:28.433Z,99.90
2022-12-11T09:46:56.566Z,99.90
2022-12-11T09:49:40.935Z,99.90
2022-12-11T09:52:48.954Z,99.90
2022-12-11T09:55:25.821Z,99.90
2022-12-11T09:58:01.477Z,99.90
2022-12-11T10:00:51.176Z,99.90
2022-12-11T10:03:39.141Z,99.90
2022-12-11T10:06:24.056Z,99.90
2022-12-11T10:09:11.600Z,99.90
2022-12-11T10:11:45.371Z,99.90
2022-12-11T10:14:31.875Z,99.90
2022-12-11T10:17:13.308Z,99.90
2022-12-11T10:19:42.323Z,99.90
2022-12-11T10:22:18.526Z,99.90
2022-12-11T10:25:12.701Z,99.90
2022-12-11T10:27:40.902Z,99.90
2022-12-11T10:30:24.597Z,99.90
2022-12-11T10:33:23.567Z,99.90
2022-12-11T10:35:54.822Z,99.90
2022-12-11T10:38:32.208Z,99.90
2022-12-11T10:41:02.413Z,99.90
2022-12-11T10:43:37.105Z,99.90
2022-12-11T10:46:05.595Z,99.90
2022-12-11T10:48:32.566Z,99.90
2022-12-11T10:51:09.728Z,99.90
2022-12-11T10:53:36.702Z,99.90
2022-12-11T10:56:03.710Z,99.90
2022-12-11T10:58:34.182Z,99.90
2022-12-11T11:01:14.277Z,99.90
2022-12-11T11:04:06.645Z,99.90
2022-12-11T11:06:34.103Z,99.90
2022-12-11T11:09:02.055Z,99.90
2022-12-11T11:11:39.406Z,99.90
2022-12-11T11:14:13.812Z,99.90
2022-12-11T11:16:43.455Z,99.90
2022-12-11T11:19:26.887Z,99.90
2022-12-11T11:21:58.472Z,99.90
2022-12-11T11:24:46.476Z,99.90
2022-12-11T11:27:35.683Z,99.90
2022-12-11T11:30:06.457Z,99.90
2022-12-11T11:32:38.592Z,99.90
2022-12-11T11:35:11.895Z,99.90
2022-12-11T11:37:42.045Z,99.90
2022-12-11T11:40:19.277Z,99.90
2022-12-11T11:43:15.336Z,99.90
2022-12-11T11:46:04.238Z,99.90
2022-12-11T11:48:43.549Z,99.90
2022-12-11T11:51:45.756Z,99.90
2022-12-11T11:54:43.179Z,99.90
2022-12-11T11:57:38.531Z,99.90
2022-12-11T12:00:16.087Z,99.90
2022-12-11T12:02:43.166Z,99.90
2022-12-11T12:05:13.715Z,99.90
2022-12-11T12:07:43.818Z,99.90
2022-12-11T12:10:36.808Z,99.90
2022-12-11T12:13:47.666Z,99.90
2022-12-11T12:16:22.965Z,99.90
2022-12-11T12:19:21.384Z,99.90
2022-12-11T12:21:52.827Z,99.90
2022-12-11T12:24:45.315Z,99.90
2022-12-11T12:27:52.000Z,99.60
2022-12-11T12:30:22.473Z,97.60
2022-12-11T12:33:02.344Z,98.10
2022-12-11T12:35:44.674Z,96.50
2022-12-11T12:38:17.216Z,96.10
2022-12-11T12:41:19.485Z,97.40
2022-12-11T12:43:50.347Z,98.70
2022-12-11T12:46:43.866Z,99.90
2022-12-11T12:49:16.890Z,99.90
2022-12-11T12:51:44.764Z,99.90
2022-12-11T12:54:16.694Z,99.90
2022-12-11T12:56:45.167Z,99.90
2022-12-11T12:59:23.747Z,99.90
2022-12-11T13:01:55.198Z,99.90
2022-12-11T13:04:59.206Z,99.90
2022-12-11T13:07:30.305Z,99.90
2022-12-11T13:10:04.905Z,99.90
2022-12-11T13:12:43.143Z,99.90
2022-12-11T13:15:36.478Z,99.90
2022-12-11T13:18:25.258Z,99.90
2022-12-11T13:20:52.341Z,99.90
2022-12-11T13:23:28.795Z,99.90
2022-12-11T13:25:58.969Z,99.90
2022-12-11T13:28:27.469Z,99.90
2022-12-11T13:31:05.741Z,99.90
2022-12-11T13:33:38.403Z,99.90
2022-12-11T13:36:16.857Z,99.90
2022-12-11T13:38:51.954Z,99.90
2022-12-11T13:41:20.194Z,99.90
2022-12-11T13:43:49.800Z,99.90
2022-12-11T13:46:24.158Z,99.90
2022-12-11T13:48:57.256Z,99.90
2022-12-11T13:51:25.821Z,99.90
2022-12-11T13:54:17.243Z,99.90
2022-12-11T13:57:04.754Z,99.90
2022-12-11T13:59:37.646Z,99.90
2022-12-11T14:02:25.049Z,99.90
2022-12-11T14:05:00.178Z,99.90
2022-12-11T14:07:31.036Z,99.90
2022-12-11T14:10:16.095Z,99.90
2022-12-11T14:12:53.510Z,99.90
2022-12-11T14:15:20.492Z,99.90
2022-12-11T14:17:51.690Z,99.90
2022-12-11T14:20:31.029Z,99.90
2022-12-11T14:23:06.929Z,99.90
2022-12-11T14:25:33.784Z,99.90
2022-12-11T14:28:01.735Z,99.90
2022-12-11T14:30:32.507Z,99.90
2022-12-11T14:33:04.961Z,99.90
2022-12-11T14:35:38.856Z,99.90
2022-12-11T14:38:26.125Z,99.90
2022-12-11T14:40:58.030Z,99.90
2022-12-11T14:43:35.619Z,99.90
2022-12-11T14:46:08.944Z,99.90
2022-12-11T14:49:00.838Z,99.90
2022-12-11T14:51:33.384Z,99.90
2022-12-11T14:54:00.650Z,99.90
2022-12-11T14:56:30.123Z,99.90
2022-12-11T14:59:06.997Z,99.90
2022-12-11T15:01:36.192Z,99.90
2022-12-11T15:04:14.902Z,99.90
2022-12-11T15:06:47.473Z,99.90
2022-12-11T15:09:36.345Z,99.90
2022-12-11T15:12:19.817Z,99.90
2022-12-11T15:14:56.740Z,99.90
2022-12-11T15:17:25.539Z,99.90
2022-12-11T15:20:02.074Z,99.90
2022-12-11T15:22:31.508Z,99.90
2022-12-11T15:24:59.797Z,99.90
2022-12-11T15:27:39.863Z,99.90
2022-12-11T15:30:18.881Z,99.90
2022-12-11T15:32:46.220Z,99.90
2022-12-11T15:35:27.216Z,99.90
2022-12-11T15:37:58.486Z,99.90
2022-12-11T15:40:25.779Z,99.90
2022-12-11T15:42:54.864Z,99.90
2022-12-11T15:45:24.712Z,99.90
2022-12-11T15:47:52.669Z,99.90
2022-12-11T15:50:27.054Z,99.90
2022-12-11T15:52:55.166Z,99.90
2022-12-11T15:55:23.896Z,99.90
2022-12-11T15:57:58.270Z,99.90
2022-12-11T16:00:28.067Z,99.90
2022-12-11T16:02:55.688Z,99.90
2022-12-11T16:05:23.110Z,99.90
2022-12-11T16:07:52.343Z,99.90
2022-12-11T16:10:20.320Z,99.90
2022-12-11T16:12:47.454Z,99.90
2022-12-11T16:15:21.399Z,99.90
2022-12-11T16:17:58.850Z,99.90
2022-12-11T16:20:25.646Z,99.90
2022-12-11T16:22:52.640Z,99.90
2022-12-11T16:25:19.406Z,99.90
2022-12-11T16:27:46.194Z,99.90
2022-12-11T16:30:13.911Z,99.90
2022-12-11T16:32:40.736Z,99.90
2022-12-11T16:35:07.806Z,99.90
2022-12-11T16:37:34.728Z,99.90
2022-12-11T16:40:01.528Z,99.90
2022-12-11T16:42:28.343Z,99.90
2022-12-11T16:44:57.631Z,99.90
2022-12-11T16:47:24.410Z,99.90
2022-12-11T16:49:51.218Z,99.90
2022-12-11T16:52:22.152Z,99.90
2022-12-11T16:54:49.278Z,99.90
2022-12-11T16:57:16.566Z,99.90
2022-12-11T16:59:43.520Z,99.90
2022-12-11T17:02:11.590Z,99.90
2022-12-11T17:04:39.272Z,99.90
2022-12-11T17:07:06.444Z,99.90
2022-12-11T17:09:33.854Z,99.90
2022-12-11T17:12:01.270Z,99.90
2022-12-11T17:14:28.597Z,99.90
2022-12-11T17:16:55.674Z,99.90
2022-12-11T17:19:22.655Z,99.90
2022-12-11T17:21:51.850Z,99.90
2022-12-11T17:24:18.738Z,99.90
2022-12-11T17:26:45.858Z,99.90
2022-12-11T17:29:13.203Z,99.90
2022-12-11T17:31:40.229Z,99.90
2022-12-11T17:34:07.368Z,99.90
2022-12-11T17:36:34.712Z,99.90
2022-12-11T17:39:01.635Z,99.90
2022-12-11T17:41:28.433Z,99.90
2022-12-11T17:43:55.800Z,99.90
2022-12-11T17:46:22.928Z,99.90
2022-12-11T17:48:49.883Z,99.90
2022-12-11T17:51:21.988Z,99.90
2022-12-11T17:53:48.952Z,99.90
2022-12-11T17:56:16.474Z,99.90
2022-12-11T17:58:43.438Z,99.90
2022-12-11T18:01:13.162Z,99.90
2022-12-11T18:03:40.372Z,99.90
2022-12-11T18:06:13.611Z,99.90
2022-12-11T18:08:41.589Z,99.90
2022-12-11T18:11:11.257Z,99.90
2022-12-11T18:13:38.682Z,99.90
2022-12-11T18:16:07.877Z,99.90
2022-12-11T18:18:35.216Z,99.90
2022-12-11T18:21:02.444Z,99.90
2022-12-11T18:23:29.663Z,99.90
2022-12-11T18:25:56.491Z,99.90
2022-12-11T18:28:23.424Z,99.90
2022-12-11T18:30:50.331Z,99.90
2022-12-11T18:33:18.022Z,99.90
2022-12-11T18:35:44.794Z,99.90
2022-12-11T18:38:12.312Z,99.90
2022-12-11T18:40:39.224Z,99.90
2022-12-11T18:43:06.062Z,99.90
2022-12-11T18:45:32.898Z,99.90
2022-12-11T18:47:59.728Z,99.90
2022-12-11T18:50:26.730Z,99.90
2022-12-11T18:52:57.058Z,99.90
2022-12-11T18:55:24.131Z,99.90
2022-12-11T18:57:50.982Z,99.90
2022-12-11T19:00:18.646Z,99.90
2022-12-11T19:02:45.913Z,99.90
2022-12-11T19:05:13.472Z,99.90
2022-12-11T19:07:40.568Z,99.90
2022-12-11T19:10:08.055Z,99.90
2022-12-11T19:12:35.920Z,99.90
2022-12-11T19:15:02.808Z,99.90
2022-12-11T19:17:29.628Z,99.90
2022-12-11T19:19:56.485Z,99.90
2022-12-11T19:22:23.317Z,99.90
2022-12-11T19:24:50.251Z,99.90
2022-12-11T19:27:17.068Z,99.90
2022-12-11T19:29:43.935Z,99.90
2022-12-11T19:32:10.755Z,99.90
2022-12-11T19:34:38.601Z,99.90
2022-12-11T19:37:05.826Z,99.90
2022-12-11T19:39:32.757Z,99.90
2022-12-11T19:41:59.960Z,99.90
2022-12-11T19:44:27.046Z,99.90
2022-12-11T19:46:53.937Z,99.90
2022-12-11T19:49:21.535Z,99.90
2022-12-11T19:51:48.375Z,99.90
2022-12-11T19:54:17.084Z,99.90
2022-12-11T19:56:44.951Z,99.90
2022-12-11T19:59:16.586Z,99.90
2022-12-11T20:01:46.713Z,99.90
2022-12-11T20:04:16.458Z,99.90
2022-12-11T20:06:45.222Z,99.90
2022-12-11T20:09:12.963Z,99.90
2022-12-11T20:11:41.833Z,99.90
2022-12-11T20:14:09.327Z,99.90
2022-12-11T20:19:23.313Z,99.90
2022-12-11T20:21:50.082Z,99.90
2022-12-11T20:24:16.892Z,99.90
2022-12-11T20:26:43.874Z,99.90
2022-12-11T20:29:12.748Z,99.90
2022-12-11T20:31:39.666Z,99.90
2022-12-11T20:34:07.339Z,99.90
2022-12-11T20:36:35.239Z,99.90
2022-12-11T20:39:02.174Z,99.90
2022-12-11T20:41:29.454Z,99.90
2022-12-11T20:43:56.363Z,99.90
2022-12-11T20:46:26.068Z,99.90
2022-12-11T20:48:54.020Z,99.90
2022-12-11T20:51:26.001Z,99.90
2022-12-11T20:54:01.205Z,99.90
2022-12-11T20:56:30.841Z,99.90
2022-12-11T20:58:58.921Z,99.90
2022-12-11T21:01:29.489Z,99.90
2022-12-11T21:03:56.655Z,99.90
2022-12-11T21:06:31.976Z,99.90
2022-12-11T21:09:06.867Z,99.90
2022-12-11T21:11:34.284Z,99.90
2022-12-11T21:14:01.210Z,99.90
2022-12-11T21:16:28.603Z,99.90
2022-12-11T21:18:58.984Z,99.90
2022-12-11T21:21:26.351Z,99.90
2022-12-11T21:23:53.253Z,99.90
2022-12-11T21:26:20.469Z,99.90
2022-12-11T21:28:47.272Z,99.90
2022-12-11T21:31:17.982Z,99.90
2022-12-11T21:33:45.386Z,99.90
2022-12-11T21:36:14.188Z,99.90
2022-12-11T21:38:43.292Z,99.90
2022-12-11T21:41:13.730Z,99.90
2022-12-11T21:44:00.431Z,99.90
2022-12-11T21:46:29.331Z,99.90
2022-12-11T21:48:56.143Z,99.90
2022-12-11T21:51:32.566Z,99.90
2022-12-11T21:54:05.204Z,99.90
2022-12-11T21:56:33.180Z,99.90
2022-12-11T21:59:01.596Z,99.90
2022-12-11T22:01:37.168Z,99.90
2022-12-11T22:04:05.204Z,99.90
2022-12-11T22:06:32.235Z,99.90
2022-12-11T22:08:59.022Z,99.90
2022-12-11T22:11:29.577Z,99.90
2022-12-11T22:13:56.978Z,99.90
2022-12-11T22:16:24.157Z,99.90
2022-12-11T22:18:51.046Z,99.90
2022-12-11T22:21:18.080Z,99.90
2022-12-11T22:23:45.293Z,99.90
2022-12-11T22:26:18.138Z,99.90
2022-12-11T22:28:44.940Z,99.90
2022-12-11T22:31:13.301Z,99.90
2022-12-11T22:33:40.899Z,99.90
2022-12-11T22:36:08.051Z,99.90
2022-12-11T22:38:35.224Z,99.90
2022-12-11T22:41:08.752Z,99.90
2022-12-11T22:43:35.665Z,99.90
2022-12-11T22:46:02.504Z,99.90
2022-12-11T22:48:29.404Z,99.90
2022-12-11T22:50:56.183Z,99.90
2022-12-11T22:53:22.970Z,99.90
2022-12-11T22:55:49.749Z,99.90
2022-12-11T22:58:21.591Z,99.90
2022-12-11T23:00:48.799Z,99.90
2022-12-11T23:03:15.733Z,99.90
2022-12-11T23:05:43.309Z,99.90
2022-12-11T23:08:10.228Z,99.90
2022-12-11T23:10:40.509Z,99.90
2022-12-11T23:13:07.660Z,99.90
2022-12-11T23:15:34.584Z,99.90
2022-12-11T23:18:01.433Z,99.90
2022-12-11T23:20:28.465Z,99.90
2022-12-11T23:22:55.547Z,99.90
2022-12-11T23:25:22.483Z,99.90
2022-12-11T23:27:49.440Z,99.90
2022-12-11T23:30:16.217Z,99.90
2022-12-11T23:32:43.023Z,99.90
2022-12-11T23:35:10.279Z,99.90
2022-12-11T23:37:37.379Z,99.90
2022-12-11T23:40:04.975Z,99.90
2022-12-11T23:42:31.756Z,99.90
2022-12-11T23:44:58.637Z,99.90
2022-12-11T23:47:25.538Z,99.90
2022-12-11T23:49:52.391Z,99.90
2022-12-11T23:52:19.215Z,99.90
2022-12-11T23:54:46.025Z,99.90
2022-12-11T23:57:12.808Z,99.90
2022-12-11T23:59:39.615Z,99.90
